sensor_id;sensor_type;location;lat;lon;timestamp;temperature;humidity
43089;DHT22;28709;52.030;5.652;2023-10-09T00:02:11;14.20;99.90
43089;DHT22;28709;52.030;5.652;2023-10-09T00:04:41;14.30;99.90
43089;DHT22;28709;52.030;5.652;2023-10-09T00:07:08;14.30;99.90
43089;DHT22;28709;52.030;5.652;2023-10-09T00:09:35;14.30;99.90
43089;DHT22;28709;52.030;5.652;2023-10-09T00:12:14;14.30;99.90
43089;DHT22;28709;52.030;5.652;2023-10-09T00:14:41;14.30;99.90
43089;DHT22;28709;52.030;5.652;2023-10-09T00:17:16;14.40;99.90
43089;DHT22;28709;52.030;5.652;2023-10-09T00:19:43;14.40;99.90
43089;DHT22;28709;52.030;5.652;2023-10-09T00:22:09;14.50;99.90
43089;DHT22;28709;52.030;5.652;2023-10-09T00:24:44;14.60;99.90
43089;DHT22;28709;52.030;5.652;2023-10-09T00:27:12;14.60;99.90
43089;DHT22;28709;52.030;5.652;2023-10-09T00:29:41;14.70;99.90
43089;DHT22;28709;52.030;5.652;2023-10-09T00:32:14;14.70;99.90
43089;DHT22;28709;52.030;5.652;2023-10-09T00:34:43;14.80;99.90
43089;DHT22;28709;52.030;5.652;2023-10-09T00:37:09;14.80;99.90
43089;DHT22;28709;52.030;5.652;2023-10-09T00:39:49;14.80;99.90
43089;DHT22;28709;52.030;5.652;2023-10-09T00:42:22;14.90;99.90
43089;DHT22;28709;52.030;5.652;2023-10-09T00:45:00;14.90;99.90
43089;DHT22;28709;52.030;5.652;2023-10-09T00:47:29;14.90;99.90
43089;DHT22;28709;52.030;5.652;2023-10-09T00:50:04;14.90;99.90
43089;DHT22;28709;52.030;5.652;2023-10-09T00:52:38;14.90;99.90
43089;DHT22;28709;52.030;5.652;2023-10-09T00:55:17;14.90;99.90
43089;DHT22;28709;52.030;5.652;2023-10-09T00:57:50;14.90;99.90
43089;DHT22;28709;52.030;5.652;2023-10-09T01:00:23;14.90;99.90
43089;DHT22;28709;52.030;5.652;2023-10-09T01:03:16;14.90;99.90
43089;DHT22;28709;52.030;5.652;2023-10-09T01:05:43;14.90;99.90
43089;DHT22;28709;52.030;5.652;2023-10-09T01:08:18;14.90;99.90
43089;DHT22;28709;52.030;5.652;2023-10-09T01:10:50;15.00;99.90
43089;DHT22;28709;52.030;5.652;2023-10-09T01:13:18;15.00;99.90
43089;DHT22;28709;52.030;5.652;2023-10-09T01:15:44;15.00;99.90
43089;DHT22;28709;52.030;5.652;2023-10-09T01:18:11;15.00;99.90
43089;DHT22;28709;52.030;5.652;2023-10-09T01:20:38;15.10;99.90
43089;DHT22;28709;52.030;5.652;2023-10-09T01:23:10;15.00;99.90
43089;DHT22;28709;52.030;5.652;2023-10-09T01:25:37;15.10;99.90
43089;DHT22;28709;52.030;5.652;2023-10-09T01:28:10;15.10;99.90
43089;DHT22;28709;52.030;5.652;2023-10-09T01:30:42;15.10;99.90
43089;DHT22;28709;52.030;5.652;2023-10-09T01:33:10;15.10;99.90
43089;DHT22;28709;52.030;5.652;2023-10-09T01:35:50;15.10;99.90
43089;DHT22;28709;52.030;5.652;2023-10-09T01:38:21;15.10;99.90
43089;DHT22;28709;52.030;5.652;2023-10-09T01:41:12;15.10;99.90
43089;DHT22;28709;52.030;5.652;2023-10-09T01:43:42;15.20;99.90
43089;DHT22;28709;52.030;5.652;2023-10-09T01:46:11;15.20;99.90
43089;DHT22;28709;52.030;5.652;2023-10-09T01:48:37;15.20;99.90
43089;DHT22;28709;52.030;5.652;2023-10-09T01:51:05;15.30;99.90
43089;DHT22;28709;52.030;5.652;2023-10-09T01:53:31;15.30;99.90
43089;DHT22;28709;52.030;5.652;2023-10-09T01:56:11;15.40;99.90
43089;DHT22;28709;52.030;5.652;2023-10-09T01:58:43;15.40;99.90
43089;DHT22;28709;52.030;5.652;2023-10-09T02:01:13;15.40;99.90
43089;DHT22;28709;52.030;5.652;2023-10-09T02:03:40;15.40;99.90
43089;DHT22;28709;52.030;5.652;2023-10-09T02:06:09;15.50;99.90
43089;DHT22;28709;52.030;5.652;2023-10-09T02:08:55;15.50;99.90
43089;DHT22;28709;52.030;5.652;2023-10-09T02:11:22;15.60;99.90
43089;DHT22;28709;52.030;5.652;2023-10-09T02:14:03;15.60;99.90
43089;DHT22;28709;52.030;5.652;2023-10-09T02:16:31;15.70;99.90
43089;DHT22;28709;52.030;5.652;2023-10-09T02:19:07;15.70;99.90
43089;DHT22;28709;52.030;5.652;2023-10-09T02:21:34;15.80;99.90
43089;DHT22;28709;52.030;5.652;2023-10-09T02:24:05;15.80;99.90
43089;DHT22;28709;52.030;5.652;2023-10-09T02:26:51;15.80;99.90
43089;DHT22;28709;52.030;5.652;2023-10-09T02:29:17;15.80;99.90
43089;DHT22;28709;52.030;5.652;2023-10-09T02:31:42;15.80;99.90
43089;DHT22;28709;52.030;5.652;2023-10-09T02:34:12;15.90;99.90
43089;DHT22;28709;52.030;5.652;2023-10-09T02:36:38;15.90;99.90
43089;DHT22;28709;52.030;5.652;2023-10-09T02:39:14;15.90;99.90
43089;DHT22;28709;52.030;5.652;2023-10-09T02:41:53;15.90;99.90
43089;DHT22;28709;52.030;5.652;2023-10-09T02:44:25;15.90;99.90
43089;DHT22;28709;52.030;5.652;2023-10-09T02:46:52;15.90;99.90
43089;DHT22;28709;52.030;5.652;2023-10-09T02:49:23;15.90;99.90
43089;DHT22;28709;52.030;5.652;2023-10-09T02:51:49;16.00;99.90
43089;DHT22;28709;52.030;5.652;2023-10-09T02:54:18;15.90;99.90
43089;DHT22;28709;52.030;5.652;2023-10-09T02:56:53;15.90;99.90
43089;DHT22;28709;52.030;5.652;2023-10-09T02:59:22;15.90;99.90
43089;DHT22;28709;52.030;5.652;2023-10-09T03:01:48;16.00;99.90
43089;DHT22;28709;52.030;5.652;2023-10-09T03:04:14;16.00;99.90
43089;DHT22;28709;52.030;5.652;2023-10-09T03:06:41;15.90;99.90
43089;DHT22;28709;52.030;5.652;2023-10-09T03:09:17;15.90;99.90
43089;DHT22;28709;52.030;5.652;2023-10-09T03:14:12;15.90;99.90
43089;DHT22;28709;52.030;5.652;2023-10-09T03:16:38;15.90;99.90
43089;DHT22;28709;52.030;5.652;2023-10-09T03:19:03;15.90;99.90
43089;DHT22;28709;52.030;5.652;2023-10-09T03:21:31;15.90;99.90
43089;DHT22;28709;52.030;5.652;2023-10-09T03:23:57;15.90;99.90
43089;DHT22;28709;52.030;5.652;2023-10-09T03:26:23;15.90;99.90
43089;DHT22;28709;52.030;5.652;2023-10-09T03:28:51;15.90;99.90
43089;DHT22;28709;52.030;5.652;2023-10-09T03:31:18;15.90;99.90
43089;DHT22;28709;52.030;5.652;2023-10-09T03:33:44;15.90;99.90
43089;DHT22;28709;52.030;5.652;2023-10-09T03:36:09;15.90;99.90
43089;DHT22;28709;52.030;5.652;2023-10-09T03:38:36;15.90;99.90
43089;DHT22;28709;52.030;5.652;2023-10-09T03:41:04;15.90;99.90
43089;DHT22;28709;52.030;5.652;2023-10-09T03:43:38;15.90;99.90
43089;DHT22;28709;52.030;5.652;2023-10-09T03:46:09;15.90;99.90
43089;DHT22;28709;52.030;5.652;2023-10-09T03:48:49;15.90;99.90
43089;DHT22;28709;52.030;5.652;2023-10-09T03:51:18;15.90;99.90
43089;DHT22;28709;52.030;5.652;2023-10-09T03:53:50;15.90;99.90
43089;DHT22;28709;52.030;5.652;2023-10-09T03:56:18;15.90;99.90
43089;DHT22;28709;52.030;5.652;2023-10-09T03:58:50;15.90;99.90
43089;DHT22;28709;52.030;5.652;2023-10-09T04:01:18;15.90;99.90
43089;DHT22;28709;52.030;5.652;2023-10-09T04:03:57;15.90;99.90
43089;DHT22;28709;52.030;5.652;2023-10-09T04:06:30;15.90;99.90
43089;DHT22;28709;52.030;5.652;2023-10-09T04:09:08;15.90;99.90
43089;DHT22;28709;52.030;5.652;2023-10-09T04:11:44;15.90;99.90
43089;DHT22;28709;52.030;5.652;2023-10-09T04:14:12;15.90;99.90
43089;DHT22;28709;52.030;5.652;2023-10-09T04:16:49;15.90;99.90
43089;DHT22;28709;52.030;5.652;2023-10-09T04:19:17;15.90;99.90
43089;DHT22;28709;52.030;5.652;2023-10-09T04:21:48;15.90;99.90
43089;DHT22;28709;52.030;5.652;2023-10-09T04:24:14;16.00;99.90
43089;DHT22;28709;52.030;5.652;2023-10-09T04:26:41;16.00;99.90
43089;DHT22;28709;52.030;5.652;2023-10-09T04:29:19;16.00;99.90
43089;DHT22;28709;52.030;5.652;2023-10-09T04:31:57;16.00;99.90
43089;DHT22;28709;52.030;5.652;2023-10-09T04:34:26;16.00;99.90
43089;DHT22;28709;52.030;5.652;2023-10-09T04:37:15;16.00;99.90
43089;DHT22;28709;52.030;5.652;2023-10-09T04:40:07;16.00;99.90
43089;DHT22;28709;52.030;5.652;2023-10-09T04:42:56;16.00;99.90
43089;DHT22;28709;52.030;5.652;2023-10-09T04:45:25;16.00;99.90
43089;DHT22;28709;52.030;5.652;2023-10-09T04:48:11;16.00;99.90
43089;DHT22;28709;52.030;5.652;2023-10-09T04:50:37;16.00;99.90
43089;DHT22;28709;52.030;5.652;2023-10-09T04:53:22;16.00;99.90
43089;DHT22;28709;52.030;5.652;2023-10-09T04:55:48;16.00;99.90
43089;DHT22;28709;52.030;5.652;2023-10-09T04:58:21;16.00;99.90
43089;DHT22;28709;52.030;5.652;2023-10-09T05:00:52;16.00;99.90
43089;DHT22;28709;52.030;5.652;2023-10-09T05:03:41;16.00;99.90
43089;DHT22;28709;52.030;5.652;2023-10-09T05:06:06;16.00;99.90
43089;DHT22;28709;52.030;5.652;2023-10-09T05:09:08;16.00;99.90
43089;DHT22;28709;52.030;5.652;2023-10-09T05:11:34;16.10;99.90
43089;DHT22;28709;52.030;5.652;2023-10-09T05:14:19;16.10;99.90
43089;DHT22;28709;52.030;5.652;2023-10-09T05:16:53;16.20;99.90
43089;DHT22;28709;52.030;5.652;2023-10-09T05:19:22;16.20;99.90
43089;DHT22;28709;52.030;5.652;2023-10-09T05:22:06;16.20;99.90
43089;DHT22;28709;52.030;5.652;2023-10-09T05:24:58;16.20;99.90
43089;DHT22;28709;52.030;5.652;2023-10-09T05:27:26;16.30;99.90
43089;DHT22;28709;52.030;5.652;2023-10-09T05:30:12;16.40;99.90
43089;DHT22;28709;52.030;5.652;2023-10-09T05:32:56;16.40;99.90
43089;DHT22;28709;52.030;5.652;2023-10-09T05:35:45;16.40;99.90
43089;DHT22;28709;52.030;5.652;2023-10-09T05:38:31;16.50;99.90
43089;DHT22;28709;52.030;5.652;2023-10-09T05:41:01;16.50;99.90
43089;DHT22;28709;52.030;5.652;2023-10-09T05:43:47;16.50;99.90
43089;DHT22;28709;52.030;5.652;2023-10-09T05:46:31;16.60;99.90
43089;DHT22;28709;52.030;5.652;2023-10-09T05:49:01;16.60;99.90
43089;DHT22;28709;52.030;5.652;2023-10-09T05:51:35;16.60;99.90
43089;DHT22;28709;52.030;5.652;2023-10-09T05:54:07;16.70;99.90
43089;DHT22;28709;52.030;5.652;2023-10-09T05:56:51;16.70;99.90
43089;DHT22;28709;52.030;5.652;2023-10-09T05:59:55;16.70;99.90
43089;DHT22;28709;52.030;5.652;2023-10-09T06:02:39;16.70;99.90
43089;DHT22;28709;52.030;5.652;2023-10-09T06:05:23;16.70;99.90
43089;DHT22;28709;52.030;5.652;2023-10-09T06:08:07;16.70;99.90
43089;DHT22;28709;52.030;5.652;2023-10-09T06:10:33;16.80;99.90
43089;DHT22;28709;52.030;5.652;2023-10-09T06:13:07;16.80;99.90
43089;DHT22;28709;52.030;5.652;2023-10-09T06:15:38;16.90;99.90
43089;DHT22;28709;52.030;5.652;2023-10-09T06:18:13;16.90;99.90
43089;DHT22;28709;52.030;5.652;2023-10-09T06:20:51;16.90;99.90
43089;DHT22;28709;52.030;5.652;2023-10-09T06:23:35;16.90;99.90
43089;DHT22;28709;52.030;5.652;2023-10-09T06:26:27;16.90;99.90
43089;DHT22;28709;52.030;5.652;2023-10-09T06:28:58;16.90;99.90
43089;DHT22;28709;52.030;5.652;2023-10-09T06:31:56;16.90;99.90
43089;DHT22;28709;52.030;5.652;2023-10-09T06:34:30;16.90;99.90
43089;DHT22;28709;52.030;5.652;2023-10-09T06:37:01;16.90;99.90
43089;DHT22;28709;52.030;5.652;2023-10-09T06:40:00;17.00;99.90
43089;DHT22;28709;52.030;5.652;2023-10-09T06:42:44;17.00;99.90
43089;DHT22;28709;52.030;5.652;2023-10-09T06:45:16;16.90;99.90
43089;DHT22;28709;52.030;5.652;2023-10-09T06:47:46;16.90;99.90
43089;DHT22;28709;52.030;5.652;2023-10-09T06:50:22;16.90;99.90
43089;DHT22;28709;52.030;5.652;2023-10-09T06:52:52;16.90;99.90
43089;DHT22;28709;52.030;5.652;2023-10-09T06:55:36;16.90;99.90
43089;DHT22;28709;52.030;5.652;2023-10-09T06:58:14;16.90;99.90
43089;DHT22;28709;52.030;5.652;2023-10-09T07:00:51;16.90;99.90
43089;DHT22;28709;52.030;5.652;2023-10-09T07:03:35;16.90;99.90
43089;DHT22;28709;52.030;5.652;2023-10-09T07:06:06;16.90;99.90
43089;DHT22;28709;52.030;5.652;2023-10-09T07:08:36;17.00;99.90
43089;DHT22;28709;52.030;5.652;2023-10-09T07:11:10;16.90;99.90
43089;DHT22;28709;52.030;5.652;2023-10-09T07:14:08;17.00;99.90
43089;DHT22;28709;52.030;5.652;2023-10-09T07:19:24;17.00;99.90
43089;DHT22;28709;52.030;5.652;2023-10-09T07:22:10;17.00;99.90
43089;DHT22;28709;52.030;5.652;2023-10-09T07:24:45;17.10;99.90
43089;DHT22;28709;52.030;5.652;2023-10-09T07:27:19;17.10;99.90
43089;DHT22;28709;52.030;5.652;2023-10-09T07:30:06;17.10;99.90
43089;DHT22;28709;52.030;5.652;2023-10-09T07:33:07;17.20;99.90
43089;DHT22;28709;52.030;5.652;2023-10-09T07:35:37;17.20;99.90
43089;DHT22;28709;52.030;5.652;2023-10-09T07:38:06;17.20;99.90
43089;DHT22;28709;52.030;5.652;2023-10-09T07:40:36;17.20;99.90
43089;DHT22;28709;52.030;5.652;2023-10-09T07:43:20;17.10;99.90
43089;DHT22;28709;52.030;5.652;2023-10-09T07:45:52;17.10;99.90
43089;DHT22;28709;52.030;5.652;2023-10-09T07:48:26;17.10;99.90
43089;DHT22;28709;52.030;5.652;2023-10-09T07:50:52;17.10;99.90
43089;DHT22;28709;52.030;5.652;2023-10-09T07:53:23;17.10;99.90
43089;DHT22;28709;52.030;5.652;2023-10-09T07:55:55;17.00;99.90
43089;DHT22;28709;52.030;5.652;2023-10-09T07:58:31;17.10;99.90
43089;DHT22;28709;52.030;5.652;2023-10-09T08:00:59;17.10;99.90
43089;DHT22;28709;52.030;5.652;2023-10-09T08:03:34;17.20;99.90
43089;DHT22;28709;52.030;5.652;2023-10-09T08:06:01;17.30;99.90
43089;DHT22;28709;52.030;5.652;2023-10-09T08:08:53;17.40;99.90
43089;DHT22;28709;52.030;5.652;2023-10-09T08:11:44;17.50;99.90
43089;DHT22;28709;52.030;5.652;2023-10-09T08:14:14;17.60;99.90
43089;DHT22;28709;52.030;5.652;2023-10-09T08:17:06;17.70;99.90
43089;DHT22;28709;52.030;5.652;2023-10-09T08:19:46;17.80;99.90
43089;DHT22;28709;52.030;5.652;2023-10-09T08:22:36;17.90;99.90
43089;DHT22;28709;52.030;5.652;2023-10-09T08:25:11;17.90;99.90
43089;DHT22;28709;52.030;5.652;2023-10-09T08:27:53;17.90;99.90
43089;DHT22;28709;52.030;5.652;2023-10-09T08:30:23;18.00;99.90
43089;DHT22;28709;52.030;5.652;2023-10-09T08:32:52;18.00;99.90
43089;DHT22;28709;52.030;5.652;2023-10-09T08:35:33;18.10;99.90
43089;DHT22;28709;52.030;5.652;2023-10-09T08:37:59;18.10;99.90
43089;DHT22;28709;52.030;5.652;2023-10-09T08:40:34;18.10;99.90
43089;DHT22;28709;52.030;5.652;2023-10-09T08:43:18;18.20;99.90
43089;DHT22;28709;52.030;5.652;2023-10-09T08:45:49;18.20;99.90
43089;DHT22;28709;52.030;5.652;2023-10-09T08:48:17;18.30;99.90
43089;DHT22;28709;52.030;5.652;2023-10-09T08:50:47;18.30;99.90
43089;DHT22;28709;52.030;5.652;2023-10-09T08:53:13;18.30;99.90
43089;DHT22;28709;52.030;5.652;2023-10-09T08:55:40;18.40;99.90
43089;DHT22;28709;52.030;5.652;2023-10-09T08:58:06;18.50;99.90
43089;DHT22;28709;52.030;5.652;2023-10-09T09:00:47;18.50;99.90
43089;DHT22;28709;52.030;5.652;2023-10-09T09:03:17;18.50;99.90
43089;DHT22;28709;52.030;5.652;2023-10-09T09:05:48;18.60;99.90
43089;DHT22;28709;52.030;5.652;2023-10-09T09:08:24;18.80;99.90
43089;DHT22;28709;52.030;5.652;2023-10-09T09:11:10;18.80;99.90
43089;DHT22;28709;52.030;5.652;2023-10-09T09:14:01;18.90;99.90
43089;DHT22;28709;52.030;5.652;2023-10-09T09:16:31;18.90;99.90
43089;DHT22;28709;52.030;5.652;2023-10-09T09:19:01;19.00;99.90
43089;DHT22;28709;52.030;5.652;2023-10-09T09:21:34;19.10;99.90
43089;DHT22;28709;52.030;5.652;2023-10-09T09:24:12;19.10;99.90
43089;DHT22;28709;52.030;5.652;2023-10-09T09:26:47;19.20;99.90
43089;DHT22;28709;52.030;5.652;2023-10-09T09:29:37;19.30;99.90
43089;DHT22;28709;52.030;5.652;2023-10-09T09:32:05;19.40;99.90
43089;DHT22;28709;52.030;5.652;2023-10-09T09:34:54;19.40;99.90
43089;DHT22;28709;52.030;5.652;2023-10-09T09:37:27;19.50;99.90
43089;DHT22;28709;52.030;5.652;2023-10-09T09:40:01;19.60;99.90
43089;DHT22;28709;52.030;5.652;2023-10-09T09:42:38;19.60;99.90
43089;DHT22;28709;52.030;5.652;2023-10-09T09:45:07;19.80;99.90
43089;DHT22;28709;52.030;5.652;2023-10-09T09:47:37;19.80;99.90
43089;DHT22;28709;52.030;5.652;2023-10-09T09:50:05;19.90;99.90
43089;DHT22;28709;52.030;5.652;2023-10-09T09:52:50;20.00;99.90
43089;DHT22;28709;52.030;5.652;2023-10-09T09:55:24;20.10;99.90
43089;DHT22;28709;52.030;5.652;2023-10-09T09:57:57;20.10;99.90
43089;DHT22;28709;52.030;5.652;2023-10-09T10:00:30;20.10;99.90
43089;DHT22;28709;52.030;5.652;2023-10-09T10:03:40;20.10;99.90
43089;DHT22;28709;52.030;5.652;2023-10-09T10:06:09;20.20;99.90
43089;DHT22;28709;52.030;5.652;2023-10-09T10:08:37;20.30;99.90
43089;DHT22;28709;52.030;5.652;2023-10-09T10:11:05;20.40;99.90
43089;DHT22;28709;52.030;5.652;2023-10-09T10:16:10;20.40;99.90
43089;DHT22;28709;52.030;5.652;2023-10-09T10:18:59;20.50;99.90
43089;DHT22;28709;52.030;5.652;2023-10-09T10:21:37;20.50;99.90
43089;DHT22;28709;52.030;5.652;2023-10-09T10:29:44;20.70;99.90
43089;DHT22;28709;52.030;5.652;2023-10-09T10:32:11;20.80;99.90
43089;DHT22;28709;52.030;5.652;2023-10-09T10:37:41;20.90;99.90
43089;DHT22;28709;52.030;5.652;2023-10-09T10:40:25;20.90;99.90
43089;DHT22;28709;52.030;5.652;2023-10-09T10:43:20;20.90;99.90
43089;DHT22;28709;52.030;5.652;2023-10-09T10:46:06;20.90;99.90
43089;DHT22;28709;52.030;5.652;2023-10-09T10:48:42;20.90;99.90
43089;DHT22;28709;52.030;5.652;2023-10-09T10:51:13;20.90;99.90
43089;DHT22;28709;52.030;5.652;2023-10-09T10:53:53;20.90;99.90
43089;DHT22;28709;52.030;5.652;2023-10-09T10:56:25;20.90;99.90
43089;DHT22;28709;52.030;5.652;2023-10-09T10:59:11;21.00;99.90
43089;DHT22;28709;52.030;5.652;2023-10-09T11:01:37;21.10;99.90
43089;DHT22;28709;52.030;5.652;2023-10-09T11:04:24;21.20;99.90
43089;DHT22;28709;52.030;5.652;2023-10-09T11:06:54;21.30;99.90
43089;DHT22;28709;52.030;5.652;2023-10-09T11:09:48;21.40;99.90
43089;DHT22;28709;52.030;5.652;2023-10-09T11:15:09;21.40;99.90
43089;DHT22;28709;52.030;5.652;2023-10-09T11:18:02;21.40;99.90
43089;DHT22;28709;52.030;5.652;2023-10-09T11:20:36;21.50;99.90
43089;DHT22;28709;52.030;5.652;2023-10-09T11:23:20;21.50;99.90
43089;DHT22;28709;52.030;5.652;2023-10-09T11:25:55;21.60;99.90
43089;DHT22;28709;52.030;5.652;2023-10-09T11:28:41;21.60;99.90
43089;DHT22;28709;52.030;5.652;2023-10-09T11:31:23;21.70;99.90
43089;DHT22;28709;52.030;5.652;2023-10-09T11:33:52;21.80;99.90
43089;DHT22;28709;52.030;5.652;2023-10-09T11:36:20;21.90;99.90
43089;DHT22;28709;52.030;5.652;2023-10-09T11:38:47;21.90;99.90
43089;DHT22;28709;52.030;5.652;2023-10-09T11:41:15;22.00;99.90
43089;DHT22;28709;52.030;5.652;2023-10-09T11:43:46;22.00;99.90
43089;DHT22;28709;52.030;5.652;2023-10-09T11:46:21;22.00;99.90
43089;DHT22;28709;52.030;5.652;2023-10-09T11:49:14;22.00;99.90
43089;DHT22;28709;52.030;5.652;2023-10-09T11:51:51;22.00;99.90
43089;DHT22;28709;52.030;5.652;2023-10-09T11:54:49;22.00;99.90
43089;DHT22;28709;52.030;5.652;2023-10-09T11:57:15;22.10;99.90
43089;DHT22;28709;52.030;5.652;2023-10-09T11:59:42;22.10;99.90
43089;DHT22;28709;52.030;5.652;2023-10-09T12:02:09;22.10;99.90
43089;DHT22;28709;52.030;5.652;2023-10-09T12:04:39;22.10;99.90
43089;DHT22;28709;52.030;5.652;2023-10-09T12:07:08;22.10;99.90
43089;DHT22;28709;52.030;5.652;2023-10-09T12:09:37;22.20;99.90
43089;DHT22;28709;52.030;5.652;2023-10-09T12:12:04;22.20;99.90
43089;DHT22;28709;52.030;5.652;2023-10-09T12:14:31;22.20;99.90
43089;DHT22;28709;52.030;5.652;2023-10-09T12:17:01;22.10;99.90
43089;DHT22;28709;52.030;5.652;2023-10-09T12:19:39;22.10;99.90
43089;DHT22;28709;52.030;5.652;2023-10-09T12:22:07;22.00;99.90
43089;DHT22;28709;52.030;5.652;2023-10-09T12:24:36;22.00;99.90
43089;DHT22;28709;52.030;5.652;2023-10-09T12:27:03;21.90;99.90
43089;DHT22;28709;52.030;5.652;2023-10-09T12:29:35;21.90;99.90
43089;DHT22;28709;52.030;5.652;2023-10-09T12:32:01;21.80;99.90
43089;DHT22;28709;52.030;5.652;2023-10-09T12:34:28;21.80;99.90
43089;DHT22;28709;52.030;5.652;2023-10-09T12:36:57;21.80;99.90
43089;DHT22;28709;52.030;5.652;2023-10-09T12:39:27;21.80;99.90
43089;DHT22;28709;52.030;5.652;2023-10-09T12:41:59;21.80;99.90
43089;DHT22;28709;52.030;5.652;2023-10-09T12:44:37;21.70;99.90
43089;DHT22;28709;52.030;5.652;2023-10-09T12:47:08;21.70;99.90
43089;DHT22;28709;52.030;5.652;2023-10-09T12:49:36;21.70;99.90
43089;DHT22;28709;52.030;5.652;2023-10-09T12:52:07;21.60;99.90
43089;DHT22;28709;52.030;5.652;2023-10-09T12:54:41;21.50;99.90
43089;DHT22;28709;52.030;5.652;2023-10-09T12:57:07;21.40;99.90
43089;DHT22;28709;52.030;5.652;2023-10-09T12:59:39;21.40;99.90
43089;DHT22;28709;52.030;5.652;2023-10-09T13:02:16;21.40;99.90
43089;DHT22;28709;52.030;5.652;2023-10-09T13:04:54;21.40;99.90
43089;DHT22;28709;52.030;5.652;2023-10-09T13:07:20;21.30;99.90
43089;DHT22;28709;52.030;5.652;2023-10-09T13:09:48;21.30;99.90
43089;DHT22;28709;52.030;5.652;2023-10-09T13:12:34;21.20;99.90
43089;DHT22;28709;52.030;5.652;2023-10-09T13:15:05;21.30;99.90
43089;DHT22;28709;52.030;5.652;2023-10-09T13:17:35;21.20;99.90
43089;DHT22;28709;52.030;5.652;2023-10-09T13:20:02;21.20;99.90
43089;DHT22;28709;52.030;5.652;2023-10-09T13:22:29;21.30;99.90
43089;DHT22;28709;52.030;5.652;2023-10-09T13:24:55;21.30;99.90
43089;DHT22;28709;52.030;5.652;2023-10-09T13:27:29;21.30;99.90
43089;DHT22;28709;52.030;5.652;2023-10-09T13:30:00;21.30;99.90
43089;DHT22;28709;52.030;5.652;2023-10-09T13:32:31;21.30;99.90
43089;DHT22;28709;52.030;5.652;2023-10-09T13:35:01;21.30;99.90
43089;DHT22;28709;52.030;5.652;2023-10-09T13:37:28;21.30;99.90
43089;DHT22;28709;52.030;5.652;2023-10-09T13:39:56;21.30;99.90
43089;DHT22;28709;52.030;5.652;2023-10-09T13:42:23;21.30;99.90
43089;DHT22;28709;52.030;5.652;2023-10-09T13:44:51;21.20;99.90
43089;DHT22;28709;52.030;5.652;2023-10-09T13:47:19;21.20;99.90
43089;DHT22;28709;52.030;5.652;2023-10-09T13:49:46;21.10;99.90
43089;DHT22;28709;52.030;5.652;2023-10-09T13:52:16;21.10;99.90
43089;DHT22;28709;52.030;5.652;2023-10-09T13:54:44;21.10;99.90
43089;DHT22;28709;52.030;5.652;2023-10-09T13:57:13;21.00;99.90
43089;DHT22;28709;52.030;5.652;2023-10-09T13:59:40;21.00;99.90
43089;DHT22;28709;52.030;5.652;2023-10-09T14:02:14;21.00;99.90
43089;DHT22;28709;52.030;5.652;2023-10-09T14:04:47;21.00;99.90
43089;DHT22;28709;52.030;5.652;2023-10-09T14:07:13;21.00;99.90
43089;DHT22;28709;52.030;5.652;2023-10-09T14:09:43;21.00;99.90
43089;DHT22;28709;52.030;5.652;2023-10-09T14:12:09;21.00;99.90
43089;DHT22;28709;52.030;5.652;2023-10-09T14:14:40;21.00;99.90
43089;DHT22;28709;52.030;5.652;2023-10-09T14:17:15;21.00;99.90
43089;DHT22;28709;52.030;5.652;2023-10-09T14:19:47;21.00;99.90
43089;DHT22;28709;52.030;5.652;2023-10-09T14:22:14;20.90;99.90
43089;DHT22;28709;52.030;5.652;2023-10-09T14:24:45;20.90;99.90
43089;DHT22;28709;52.030;5.652;2023-10-09T14:27:14;20.90;99.90
43089;DHT22;28709;52.030;5.652;2023-10-09T14:29:49;20.90;99.90
43089;DHT22;28709;52.030;5.652;2023-10-09T14:32:15;20.80;99.90
43089;DHT22;28709;52.030;5.652;2023-10-09T14:34:44;20.80;99.90
43089;DHT22;28709;52.030;5.652;2023-10-09T14:37:17;20.80;99.90
43089;DHT22;28709;52.030;5.652;2023-10-09T14:39:44;20.70;99.90
43089;DHT22;28709;52.030;5.652;2023-10-09T14:42:14;20.70;99.90
43089;DHT22;28709;52.030;5.652;2023-10-09T14:44:41;20.60;99.90
43089;DHT22;28709;52.030;5.652;2023-10-09T14:47:07;20.50;99.90
43089;DHT22;28709;52.030;5.652;2023-10-09T14:49:33;20.50;99.90
43089;DHT22;28709;52.030;5.652;2023-10-09T14:52:05;20.50;99.90
43089;DHT22;28709;52.030;5.652;2023-10-09T14:54:34;20.50;99.90
43089;DHT22;28709;52.030;5.652;2023-10-09T14:57:00;20.50;99.90
43089;DHT22;28709;52.030;5.652;2023-10-09T14:59:25;20.50;99.90
43089;DHT22;28709;52.030;5.652;2023-10-09T15:01:51;20.50;99.90
43089;DHT22;28709;52.030;5.652;2023-10-09T15:04:19;20.50;99.90
43089;DHT22;28709;52.030;5.652;2023-10-09T15:06:45;20.60;99.90
43089;DHT22;28709;52.030;5.652;2023-10-09T15:09:15;20.60;99.90
43089;DHT22;28709;52.030;5.652;2023-10-09T15:11:48;20.60;99.90
43089;DHT22;28709;52.030;5.652;2023-10-09T15:14:14;20.60;99.90
43089;DHT22;28709;52.030;5.652;2023-10-09T15:16:40;20.70;99.90
43089;DHT22;28709;52.030;5.652;2023-10-09T15:19:08;20.70;99.90
43089;DHT22;28709;52.030;5.652;2023-10-09T15:21:36;20.60;99.90
43089;DHT22;28709;52.030;5.652;2023-10-09T15:24:12;20.60;99.90
43089;DHT22;28709;52.030;5.652;2023-10-09T15:26:41;20.60;99.90
43089;DHT22;28709;52.030;5.652;2023-10-09T15:29:07;20.60;99.90
43089;DHT22;28709;52.030;5.652;2023-10-09T15:31:35;20.50;99.90
43089;DHT22;28709;52.030;5.652;2023-10-09T15:34:01;20.50;99.90
43089;DHT22;28709;52.030;5.652;2023-10-09T15:36:27;20.40;99.90
43089;DHT22;28709;52.030;5.652;2023-10-09T15:38:56;20.40;99.90
43089;DHT22;28709;52.030;5.652;2023-10-09T15:41:27;20.30;99.90
43089;DHT22;28709;52.030;5.652;2023-10-09T15:43:56;20.30;99.90
43089;DHT22;28709;52.030;5.652;2023-10-09T15:46:26;20.30;99.90
43089;DHT22;28709;52.030;5.652;2023-10-09T15:48:52;20.30;99.90
43089;DHT22;28709;52.030;5.652;2023-10-09T15:51:19;20.20;99.90
43089;DHT22;28709;52.030;5.652;2023-10-09T15:53:46;20.20;99.90
43089;DHT22;28709;52.030;5.652;2023-10-09T15:56:12;20.20;99.90
43089;DHT22;28709;52.030;5.652;2023-10-09T15:58:39;20.10;99.90
43089;DHT22;28709;52.030;5.652;2023-10-09T16:01:11;20.10;99.90
43089;DHT22;28709;52.030;5.652;2023-10-09T16:03:39;20.00;99.90
43089;DHT22;28709;52.030;5.652;2023-10-09T16:06:06;20.00;99.90
43089;DHT22;28709;52.030;5.652;2023-10-09T16:08:34;20.00;99.90
43089;DHT22;28709;52.030;5.652;2023-10-09T16:11:02;19.90;99.90
43089;DHT22;28709;52.030;5.652;2023-10-09T16:13:28;19.90;99.90
43089;DHT22;28709;52.030;5.652;2023-10-09T16:15:53;19.90;99.90
43089;DHT22;28709;52.030;5.652;2023-10-09T16:18:21;20.00;99.90
43089;DHT22;28709;52.030;5.652;2023-10-09T16:20:47;19.90;99.90
43089;DHT22;28709;52.030;5.652;2023-10-09T16:23:13;20.00;99.90
43089;DHT22;28709;52.030;5.652;2023-10-09T16:25:38;19.90;99.90
43089;DHT22;28709;52.030;5.652;2023-10-09T16:28:05;19.90;99.90